Time;durP1;ratioP1;P1;durP2;ratioP2;P2;SDS_P1;SDS_P2;PMS_P1;PMS_P2;Temp;Humidity;BMP_temperature;BMP_pressure;BME280_temperature;BME280_humidity;BME280_pressure;Samples;Min_cycle;Max_cycle;Signal;HPM_P1;HPM_P2
2022/05/08 00:02:27;;;;;;;;;34.50;31.50;;;;;14.38;57.88;101448.00;146605;600;46020;-69
2022/05/08 00:05:19;;;;;;;;;16.75;13.25;;;;;14.31;57.86;101445.91;146606;654;46915;-68
2022/05/08 00:08:11;;;;;;;;;16.00;15.00;;;;;14.23;57.83;101445.53;146612;591;46010;-70
2022/05/08 00:11:03;;;;;;;;;14.00;13.50;;;;;14.20;57.56;101442.78;146605;571;46016;-69
2022/05/08 00:13:55;;;;;;;;;13.75;13.25;;;;;14.20;57.13;101445.38;146609;613;46020;-69
2022/05/08 00:16:47;;;;;;;;;16.00;13.25;;;;;14.22;57.01;101441.16;146607;641;46012;-69
2022/05/08 00:19:39;;;;;;;;;14.50;12.75;;;;;14.18;57.27;101426.19;146607;559;47012;-70
2022/05/08 00:22:32;;;;;;;;;13.00;12.50;;;;;14.10;57.41;101437.94;146606;567;46016;-67
2022/05/08 00:25:26;;;;;;;;;14.75;11.50;;;;;14.00;57.74;101428.78;146609;670;46020;-69
2022/05/08 00:28:18;;;;;;;;;14.75;13.75;;;;;13.94;57.97;101420.69;146607;574;46016;-69
2022/05/08 00:31:14;;;;;;;;;12.75;12.25;;;;;13.86;57.68;101420.31;146605;569;46020;-69
2022/05/08 00:34:06;;;;;;;;;13.75;11.25;;;;;13.80;57.73;101417.41;146604;576;46017;-70
2022/05/08 00:36:59;;;;;;;;;14.50;14.00;;;;;13.78;57.81;101419.03;146612;591;46020;-70
2022/05/08 00:39:51;;;;;;;;;16.00;11.00;;;;;13.78;57.79;101415.53;146607;569;46014;-72
2022/05/08 00:42:43;;;;;;;;;14.00;11.00;;;;;13.77;57.90;101417.25;146609;585;46021;-71
2022/05/08 00:45:35;;;;;;;;;16.25;12.00;;;;;13.75;58.29;101418.00;146605;647;46016;-69
2022/05/08 00:48:28;;;;;;;;;12.00;10.75;;;;;13.73;57.64;101423.13;146610;629;46010;-70
2022/05/08 00:51:21;;;;;;;;;12.25;12.25;;;;;13.69;58.22;101421.19;146607;580;46016;-69
2022/05/08 00:54:13;;;;;;;;;11.00;10.50;;;;;13.65;58.38;101420.97;146607;643;46010;-70
2022/05/08 00:57:06;;;;;;;;;11.75;11.50;;;;;13.58;58.49;101427.56;146608;677;46013;-69
2022/05/08 00:59:59;;;;;;;;;14.00;12.50;;;;;12.43;58.57;101240.34;146608;565;46010;-70
2022/05/08 01:02:51;;;;;;;;;14.25;12.75;;;;;13.43;58.59;101424.19;146609;594;46012;-71
2022/05/08 01:05:44;;;;;;;;;14.75;13.50;;;;;13.38;59.12;101421.34;146610;664;46010;-70
2022/05/08 01:08:38;;;;;;;;;15.50;13.25;;;;;13.33;59.26;101417.59;146608;586;46016;-71
2022/05/08 01:11:31;;;;;;;;;15.25;12.00;;;;;13.27;59.60;101425.09;146609;730;46021;-71
2022/05/08 01:14:23;;;;;;;;;13.25;12.00;;;;;13.22;59.08;101419.66;146611;569;46016;-71
2022/05/08 01:17:18;;;;;;;;;14.00;11.75;;;;;12.16;59.03;101228.50;146614;672;46020;-73
2022/05/08 01:20:10;;;;;;;;;12.75;11.50;;;;;13.25;59.54;101422.44;146610;597;46016;-67
2022/05/08 01:23:02;;;;;;;;;13.25;12.25;;;;;13.27;59.43;101417.28;146610;585;46020;-71
2022/05/08 01:25:57;;;;;;;;;13.50;12.75;;;;;13.22;59.13;101409.22;146606;564;46017;-71
2022/05/08 01:28:49;;;;;;;;;14.00;13.50;;;;;13.18;58.71;101410.78;146612;566;46010;-70
2022/05/08 01:31:41;;;;;;;;;13.00;11.50;;;;;13.16;59.48;101407.19;146606;569;46035;-71
2022/05/08 01:34:33;;;;;;;;;15.00;12.00;;;;;13.14;59.05;101410.53;146611;584;45021;-70
2022/05/08 01:37:26;;;;;;;;;17.00;14.25;;;;;13.12;59.54;101412.19;146607;602;46016;-67
2022/05/08 01:40:18;;;;;;;;;13.75;12.50;;;;;13.04;59.34;101411.75;146610;629;46010;-70
2022/05/08 01:43:10;;;;;;;;;16.00;13.75;;;;;12.95;59.65;101414.78;146607;602;46016;-69
2022/05/08 01:46:02;;;;;;;;;13.75;11.25;;;;;12.89;59.86;101426.56;146608;578;46010;-68
2022/05/08 01:48:54;;;;;;;;;15.25;12.75;;;;;12.81;60.55;101425.28;146605;647;46016;-67
2022/05/08 01:51:46;;;;;;;;;14.25;13.00;;;;;12.75;60.38;101424.97;146610;612;46010;-71
2022/05/08 01:54:39;;;;;;;;;16.00;12.00;;;;;12.69;60.28;101421.22;146605;606;46016;-71
2022/05/08 01:57:31;;;;;;;;;17.00;12.50;;;;;12.68;59.91;101418.53;146607;590;46021;-71
2022/05/08 02:00:23;;;;;;;;;17.00;15.75;;;;;12.69;60.16;101416.00;146602;609;48915;-69
2022/05/08 02:03:16;;;;;;;;;14.00;14.00;;;;;12.69;61.68;101418.59;146608;578;46011;-71
2022/05/08 02:06:08;;;;;;;;;12.50;12.25;;;;;12.69;60.32;101420.31;146606;576;46914;-71
2022/05/08 02:09:01;;;;;;;;;14.50;13.00;;;;;12.68;60.19;101418.53;146610;606;46010;-71
2022/05/08 02:11:52;;;;;;;;;13.75;11.25;;;;;12.66;61.19;101414.94;146608;586;45915;-71
2022/05/08 02:14:45;;;;;;;;;12.50;12.50;;;;;12.59;61.96;101420.66;146608;584;47020;-72
2022/05/08 02:17:38;;;;;;;;;14.25;12.00;;;;;12.53;60.80;101415.12;146604;585;46016;-72
2022/05/08 02:20:30;;;;;;;;;17.75;15.00;;;;;12.46;62.43;101409.56;146612;662;46010;-71
2022/05/08 02:23:22;;;;;;;;;15.25;12.75;;;;;12.42;61.05;101406.72;146610;662;46016;-72
2022/05/08 02:26:14;;;;;;;;;16.00;13.75;;;;;12.39;62.07;101411.75;146610;615;46020;-71
2022/05/08 02:29:07;;;;;;;;;21.00;18.00;;;;;12.37;61.12;101408.19;146607;645;46016;-72
2022/05/08 02:31:59;;;;;;;;;22.75;18.00;;;;;12.37;61.21;101409.06;146608;609;46020;-70
2022/05/08 02:34:51;;;;;;;;;17.25;15.50;;;;;12.41;60.66;101402.31;146606;594;46017;-70
2022/05/08 02:37:44;;;;;;;;;20.00;20.00;;;;;12.45;60.56;101409.47;146606;575;46012;-72
2022/05/08 02:40:36;;;;;;;;;16.50;15.75;;;;;12.44;60.76;101413.78;146607;588;46013;-67
2022/05/08 02:43:29;;;;;;;;;22.00;18.50;;;;;12.45;60.42;101409.47;146610;651;47012;-70
2022/05/08 02:46:21;;;;;;;;;21.25;20.00;;;;;12.43;60.84;101413.72;146605;597;46014;-70
2022/05/08 02:49:13;;;;;;;;;26.00;21.75;;;;;12.32;62.50;101417.44;146609;621;46010;-66
2022/05/08 02:52:05;;;;;;;;;24.00;24.00;;;;;12.22;62.01;101418.62;146607;639;46016;-67
2022/05/08 02:54:57;;;;;;;;;24.25;20.25;;;;;12.12;62.08;101416.31;146606;605;45021;-66
2022/05/08 03:01:07;;;;;;;;;18.25;16.25;;;;;12.05;62.88;101411.56;146607;563;46020;-68
2022/05/08 03:03:59;;;;;;;;;19.25;17.25;;;;;12.00;62.00;101413.94;146604;602;46915;-67
2022/05/08 03:06:51;;;;;;;;;17.75;17.00;;;;;12.00;62.81;101417.41;146611;604;45020;-67
2022/05/08 03:09:43;;;;;;;;;18.00;16.50;;;;;11.97;62.07;101414.66;146607;595;46016;-69
2022/05/08 03:12:36;;;;;;;;;16.25;14.25;;;;;11.93;62.67;101419.56;146610;667;46010;-71
2022/05/08 03:15:27;;;;;;;;;16.25;15.00;;;;;11.91;61.99;101426.41;146605;576;46016;-71
2022/05/08 03:18:20;;;;;;;;;10.75;10.25;;;;;11.87;61.61;101427.94;146609;608;46028;-72
2022/05/08 03:21:14;;;;;;;;;18.50;17.00;;;;;11.85;61.26;101432.12;146602;606;46039;-72
2022/05/08 03:24:06;;;;;;;;;14.75;12.75;;;;;11.83;62.95;101431.13;146609;600;46020;-68
2022/05/08 03:27:00;;;;;;;;;12.00;11.00;;;;;11.79;62.59;101439.56;146603;650;47012;-68
2022/05/08 03:29:52;;;;;;;;;10.00;10.00;;;;;11.76;62.05;101434.19;146609;695;46020;-69
2022/05/08 03:32:44;;;;;;;;;15.25;13.50;;;;;11.76;62.01;101444.56;146605;569;46017;-69
2022/05/08 03:35:36;;;;;;;;;14.50;13.50;;;;;11.78;62.20;101441.25;146610;588;46010;-69
2022/05/08 03:38:28;;;;;;;;;13.00;12.00;;;;;11.80;61.63;101447.41;146605;566;47012;-68
2022/05/08 03:41:21;;;;;;;;;11.00;11.00;;;;;11.81;62.41;101450.94;146612;602;46012;-67
2022/05/08 03:44:13;;;;;;;;;11.00;10.00;;;;;11.79;61.59;101455.13;146611;647;47014;-68
2022/05/08 03:47:05;;;;;;;;;15.50;12.75;;;;;11.85;61.61;101457.22;146612;660;45020;-67
2022/05/08 03:49:58;;;;;;;;;14.00;13.50;;;;;11.96;61.32;101467.44;146610;676;46016;-68
2022/05/08 03:52:50;;;;;;;;;11.25;11.25;;;;;12.07;61.08;101472.34;146607;585;46029;-70
2022/05/08 03:55:42;;;;;;;;;17.25;14.00;;;;;12.16;61.02;101478.06;146606;564;46016;-69
2022/05/08 03:58:34;;;;;;;;;15.50;14.50;;;;;12.21;60.86;101477.53;146608;581;46020;-69
2022/05/08 04:01:26;;;;;;;;;17.00;13.75;;;;;12.30;60.71;101484.03;146607;598;46012;-68
2022/05/08 04:04:19;;;;;;;;;14.50;13.00;;;;;12.38;61.09;101481.06;146612;596;46010;-70
2022/05/08 04:07:12;;;;;;;;;15.50;12.75;;;;;12.46;60.74;101476.28;146608;565;46016;-67
2022/05/08 04:10:05;;;;;;;;;16.00;15.00;;;;;12.54;60.71;101489.72;146610;583;46012;-67
2022/05/08 04:12:57;;;;;;;;;14.25;14.00;;;;;12.66;61.12;101480.00;146606;650;47016;-70
2022/05/08 04:18:59;;;;;;;;;15.50;13.50;;;;;12.91;60.25;101484.81;146604;715;46012;-70
2022/05/08 04:24:16;;;;;;;;;13.00;12.50;;;;;13.04;60.46;101492.47;146606;650;46020;-70
2022/05/08 04:25:03;;;;;;;;;16.25;14.00;;;;;13.17;59.79;101499.22;146608;594;46018;-68
2022/05/08 04:27:55;;;;;;;;;15.25;13.00;;;;;13.30;59.56;101500.78;146610;626;46020;-68
2022/05/08 04:30:47;;;;;;;;;14.00;11.25;;;;;13.49;58.70;101502.66;146605;592;46016;-69
2022/05/08 04:33:39;;;;;;;;;15.75;15.00;;;;;13.68;60.11;101501.91;146610;565;46021;-68
2022/05/08 04:36:32;;;;;;;;;18.50;15.25;;;;;13.86;59.34;101510.63;146605;565;46014;-68
2022/05/08 04:39:24;;;;;;;;;13.00;12.00;;;;;14.02;59.03;101510.59;146607;600;46021;-68
2022/05/08 04:42:17;;;;;;;;;20.25;16.00;;;;;14.20;58.10;101513.22;146604;641;46016;-67
2022/05/08 04:45:10;;;;;;;;;18.00;16.75;;;;;14.41;57.42;101523.81;146609;598;46020;-68
2022/05/08 04:48:02;;;;;;;;;20.00;17.25;;;;;14.63;57.61;101523.16;146606;603;46014;-68
2022/05/08 04:50:54;;;;;;;;;17.75;16.00;;;;;14.82;56.65;101518.78;146607;604;46020;-68
2022/05/08 04:53:46;;;;;;;;;20.25;19.50;;;;;14.98;56.27;101524.81;146607;567;46015;-69
2022/05/08 04:56:38;;;;;;;;;17.75;16.00;;;;;15.17;56.38;101534.38;146610;671;45020;-70
2022/05/08 04:59:30;;;;;;;;;24.25;20.25;;;;;15.38;55.71;101541.38;146606;563;46030;-70
2022/05/08 05:02:22;;;;;;;;;21.75;18.75;;;;;15.60;54.89;101541.50;146607;695;46029;-69
2022/05/08 05:05:14;;;;;;;;;19.00;17.00;;;;;15.82;54.11;101532.88;146606;586;46012;-71
2022/05/08 05:08:09;;;;;;;;;18.50;15.75;;;;;15.98;54.23;101537.09;146608;564;46020;-69
2022/05/08 05:11:01;;;;;;;;;19.25;18.25;;;;;16.08;53.73;101535.75;146604;591;46014;-70
2022/05/08 05:13:53;;;;;;;;;17.00;16.00;;;;;16.15;54.12;101530.81;146609;570;47010;-70
2022/05/08 05:16:46;;;;;;;;;18.50;17.25;;;;;16.25;53.32;101526.84;146606;587;46013;-70
2022/05/08 05:19:38;;;;;;;;;22.00;19.00;;;;;16.30;52.90;101521.81;146606;594;46023;-72
2022/05/08 05:22:30;;;;;;;;;21.50;19.50;;;;;16.30;52.85;101521.81;146605;615;46017;-72
2022/05/08 05:25:22;;;;;;;;;23.25;18.75;;;;;16.26;53.67;101528.66;146609;598;46020;-75
2022/05/08 05:28:14;;;;;;;;;18.00;18.00;;;;;16.24;53.31;101525.06;146608;666;46016;-74
2022/05/08 05:31:07;;;;;;;;;19.25;18.75;;;;;16.23;54.11;101519.75;146607;606;46020;-72
2022/05/08 05:33:59;;;;;;;;;19.25;16.75;;;;;16.22;54.54;101517.97;146607;589;47012;-72
2022/05/08 05:36:51;;;;;;;;;20.25;17.00;;;;;16.26;54.81;101514.66;146609;583;46021;-66
2022/05/08 05:39:43;;;;;;;;;16.50;15.00;;;;;15.38;55.10;101340.16;146607;559;46012;-69
2022/05/08 05:42:36;;;;;;;;;15.75;15.25;;;;;16.39;55.28;101507.38;146606;569;47010;-69
2022/05/08 05:45:28;;;;;;;;;16.75;13.75;;;;;16.47;55.36;101493.69;146605;584;47013;-68
2022/05/08 05:48:21;;;;;;;;;17.75;15.00;;;;;16.56;55.75;101487.09;146607;584;46010;-68
2022/05/08 05:51:13;;;;;;;;;19.00;16.50;;;;;16.61;55.71;101475.06;146609;615;46032;-68
2022/05/08 05:54:05;;;;;;;;;16.00;14.50;;;;;16.71;56.14;101478.03;146607;615;46011;-67
2022/05/08 05:56:58;;;;;;;;;18.25;16.75;;;;;16.82;55.94;101481.97;146607;585;46016;-68
2022/05/08 05:59:50;;;;;;;;;18.50;14.75;;;;;16.90;53.74;101466.56;146607;669;46010;-69
2022/05/08 06:02:43;;;;;;;;;16.50;14.75;;;;;16.96;54.94;101458.94;146608;598;46035;-68
2022/05/08 06:05:36;;;;;;;;;15.00;12.75;;;;;17.00;55.81;101448.62;146612;563;46020;-69
2022/05/08 06:08:28;;;;;;;;;24.00;19.50;;;;;17.03;54.35;101451.34;146606;583;47014;-67
2022/05/08 06:11:20;;;;;;;;;21.25;20.00;;;;;17.00;53.86;101438.13;146608;573;46010;-69
2022/05/08 06:14:12;;;;;;;;;24.00;20.75;;;;;17.03;54.73;101442.59;146607;577;46012;-70
2022/05/08 06:17:05;;;;;;;;;24.25;21.75;;;;;17.03;53.63;101440.87;146604;576;46021;-71
2022/05/08 06:19:57;;;;;;;;;22.75;20.50;;;;;17.07;53.99;101436.63;146605;569;46014;-69
2022/05/08 06:22:49;;;;;;;;;19.25;18.25;;;;;17.16;53.79;101428.22;146609;581;46021;-72
2022/05/08 06:25:43;;;;;;;;;21.50;19.50;;;;;17.31;53.37;101434.00;146606;563;46914;-66
2022/05/08 06:28:35;;;;;;;;;19.00;18.25;;;;;17.41;52.93;101430.84;146609;756;46020;-66
2022/05/08 06:31:27;;;;;;;;;15.00;14.00;;;;;17.54;53.26;101437.44;146604;605;46017;-67
2022/05/08 06:34:20;;;;;;;;;16.25;15.25;;;;;17.68;52.84;101436.16;146608;677;46020;-66
2022/05/08 06:37:12;;;;;;;;;22.50;19.25;;;;;16.89;52.45;101270.97;146605;581;46016;-71
2022/05/08 06:40:04;;;;;;;;;16.25;16.00;;;;;17.88;51.46;101439.50;146608;613;46020;-71
2022/05/08 06:42:56;;;;;;;;;17.25;16.25;;;;;17.90;51.08;101440.41;146624;594;45016;-71
2022/05/08 06:45:49;;;;;;;;;14.00;13.50;;;;;17.92;50.24;101449.22;146629;570;45010;-71
2022/05/08 06:48:41;;;;;;;;;14.25;12.75;;;;;17.93;50.59;101451.00;146630;570;45016;-70
2022/05/08 06:51:36;;;;;;;;;16.00;14.00;;;;;18.04;51.07;101463.56;146627;580;45020;-73
2022/05/08 06:54:28;;;;;;;;;14.50;13.75;;;;;18.21;51.30;101451.91;146627;653;46012;-70
2022/05/08 06:57:21;;;;;;;;;20.00;16.00;;;;;18.48;50.37;101456.25;146631;563;45027;-69
2022/05/08 07:03:24;;;;;;;;;19.00;16.25;;;;;19.02;49.25;101470.13;146627;574;46020;-70
2022/05/08 07:06:15;;;;;;;;;14.00;14.00;;;;;19.27;48.85;101474.34;146625;597;45017;-69
2022/05/08 07:09:09;;;;;;;;;16.00;13.50;;;;;19.47;48.41;101469.66;146628;574;45012;-70
2022/05/08 07:12:01;;;;;;;;;12.75;12.50;;;;;18.78;47.25;101323.16;146630;621;45012;-71
2022/05/08 07:15:01;;;;;;;;;16.25;13.25;;;;;19.72;46.96;101478.19;146628;583;45021;-71
2022/05/08 07:17:53;;;;;;;;;15.75;14.25;;;;;19.79;47.46;101474.88;146624;651;45016;-68
2022/05/08 07:20:45;;;;;;;;;15.75;14.00;;;;;19.94;46.59;101477.03;146628;591;45020;-67
2022/05/08 07:23:40;;;;;;;;;16.00;16.00;;;;;20.05;46.15;101476.41;146624;610;45016;-69
2022/05/08 07:26:33;;;;;;;;;17.25;14.00;;;;;20.22;46.96;101479.47;146630;689;46010;-68
2022/05/08 07:29:24;;;;;;;;;13.25;12.25;;;;;20.44;46.26;101477.34;146631;564;45013;-66
2022/05/08 07:32:17;;;;;;;;;14.50;13.00;;;;;20.70;46.81;101473.56;146631;597;45010;-68
2022/05/08 07:38:21;;;;;;;;;14.00;13.75;;;;;21.34;45.11;101470.44;146630;569;45021;-73
2022/05/08 07:41:16;;;;;;;;;15.75;15.25;;;;;21.53;45.23;101477.00;146616;618;47012;-73
2022/05/08 07:44:08;;;;;;;;;12.50;10.00;;;;;21.59;44.42;101483.28;146608;600;46010;-67
2022/05/08 07:47:00;;;;;;;;;15.50;13.00;;;;;20.79;43.72;101329.66;146607;586;46016;-68
2022/05/08 07:49:53;;;;;;;;;10.00;9.75;;;;;21.61;43.87;101484.19;146614;647;46010;-69
2022/05/08 07:52:44;;;;;;;;;11.25;7.75;;;;;21.59;44.88;101477.13;146608;664;46017;-71
2022/05/08 07:55:37;;;;;;;;;13.00;13.00;;;;;21.58;44.71;101481.47;146613;600;46010;-73
2022/05/08 07:58:33;;;;;;;;;11.00;9.25;;;;;21.58;43.47;101484.13;146606;726;46916;-71
2022/05/08 08:01:25;;;;;;;;;12.50;10.50;;;;;21.53;44.65;101482.28;146608;581;46020;-72
2022/05/08 08:04:18;;;;;;;;;12.75;11.75;;;;;21.52;44.79;101476.09;146605;595;46016;-72
2022/05/08 08:07:10;;;;;;;;;12.75;11.75;;;;;21.56;45.03;101480.59;146610;594;46010;-72
2022/05/08 08:10:02;;;;;;;;;14.50;12.25;;;;;21.64;44.09;101484.22;146607;571;46014;-71
2022/05/08 08:12:54;;;;;;;;;11.25;10.50;;;;;21.63;43.99;101477.19;146609;606;46020;-73
2022/05/08 08:15:46;;;;;;;;;12.25;10.75;;;;;21.49;45.18;101473.41;146610;639;46016;-72
2022/05/08 08:18:38;;;;;;;;;11.00;10.00;;;;;21.36;44.98;101479.31;146610;607;46010;-71
2022/05/08 08:21:31;;;;;;;;;10.00;9.75;;;;;21.23;44.95;101481.69;146604;602;46017;-72
2022/05/08 08:24:23;;;;;;;;;12.00;11.00;;;;;21.30;43.74;101476.53;146608;615;46030;-72
2022/05/08 08:27:19;;;;;;;;;16.75;13.25;;;;;21.48;44.90;101476.91;146606;601;46915;-71
2022/05/08 08:30:11;;;;;;;;;14.00;13.00;;;;;21.65;44.44;101477.19;146610;618;46020;-71
2022/05/08 08:33:14;;;;;;;;;10.00;8.25;;;;;21.76;44.85;101472.12;146612;585;46016;-71
2022/05/08 08:36:07;;;;;;;;;12.00;11.50;;;;;21.89;44.19;101475.00;146606;576;46021;-72
2022/05/08 08:39:02;;;;;;;;;16.00;14.75;;;;;22.06;43.84;101475.28;146609;578;46012;-73
2022/05/08 08:42:04;;;;;;;;;9.75;9.75;;;;;22.20;43.49;101472.00;146607;613;46020;-73
2022/05/08 08:48:17;;;;;;;;;10.75;9.50;;;;;22.37;44.04;101470.50;146607;638;46020;-72
2022/05/08 08:51:09;;;;;;;;;10.25;8.00;;;;;22.31;42.84;101467.78;146610;692;46915;-71
2022/05/08 08:54:02;;;;;;;;;13.75;13.00;;;;;22.18;43.58;101468.44;146606;602;46020;-71
2022/05/08 08:56:54;;;;;;;;;13.00;12.00;;;;;21.94;43.68;101469.81;146611;579;46016;-70
2022/05/08 08:59:46;;;;;;;;;11.75;11.75;;;;;21.67;44.35;101465.81;146609;608;46021;-69
2022/05/08 09:02:39;;;;;;;;;9.00;8.00;;;;;21.47;43.77;101467.22;146609;587;46016;-70
2022/05/08 09:05:33;;;;;;;;;10.50;8.50;;;;;21.28;44.65;101465.97;146610;672;47010;-70
2022/05/08 09:08:35;;;;;;;;;14.25;11.25;;;;;21.03;44.53;101464.59;146608;650;46914;-70
2022/05/08 09:11:37;;;;;;;;;16.50;13.75;;;;;20.86;46.34;101465.97;146604;572;46020;-71
2022/05/08 09:14:36;;;;;;;;;9.50;8.00;;;;;20.65;46.84;101469.91;146613;666;46016;-70
2022/05/08 09:17:46;;;;;;;;;8.75;8.50;;;;;20.54;48.06;101471.44;146610;701;47012;-70
2022/05/08 09:20:51;;;;;;;;;10.00;7.00;;;;;20.46;47.98;101471.22;146610;574;46915;-71
2022/05/08 09:23:43;;;;;;;;;10.00;7.00;;;;;20.42;48.51;101473.75;146616;645;46012;-71
2022/05/08 09:26:36;;;;;;;;;10.00;7.50;;;;;20.38;48.38;101469.28;146611;569;46016;-70
2022/05/08 09:29:29;;;;;;;;;8.00;7.00;;;;;18.86;48.60;101228.81;146616;598;46010;-76
2022/05/08 09:32:42;;;;;;;;;6.50;6.00;;;;;20.23;48.63;101478.59;146615;580;46012;-69
2022/05/08 09:36:07;;;;;;;;;7.50;7.00;;;;;20.22;48.99;101476.84;146614;630;46021;-70
2022/05/08 09:39:01;;;;;;;;;7.50;6.00;;;;;20.20;49.02;101464.47;146611;648;46032;-73
2022/05/08 09:41:53;;;;;;;;;6.25;6.25;;;;;20.23;47.93;101469.81;146612;658;46021;-71
2022/05/08 09:45:07;;;;;;;;;13.25;9.00;;;;;20.28;48.42;101468.19;146610;566;46016;-74
2022/05/08 09:48:01;;;;;;;;;7.00;6.50;;;;;20.33;47.87;101471.81;146615;623;46010;-70
2022/05/08 09:50:54;;;;;;;;;4.50;4.50;;;;;20.24;48.21;101472.47;146612;614;46016;-69
2022/05/08 09:53:49;;;;;;;;;7.50;6.50;;;;;20.26;48.37;101460.25;146613;623;46010;-71
2022/05/08 09:56:42;;;;;;;;;6.25;6.00;;;;;20.56;48.80;101477.66;146612;596;46915;-71
2022/05/08 10:00:11;;;;;;;;;7.75;6.00;;;;;20.86;48.77;101473.87;146613;589;46021;-70
2022/05/08 10:03:06;;;;;;;;;7.25;7.00;;;;;21.11;48.05;101478.78;146610;629;47014;-71
2022/05/08 10:15:49;;;;;;;;;8.00;7.00;;;;;20.86;48.22;101472.12;146605;644;46016;-70
2022/05/08 10:18:41;;;;;;;;;6.75;6.75;;;;;20.73;49.08;101475.38;146614;626;46021;-71
2022/05/08 10:21:34;;;;;;;;;9.25;8.50;;;;;20.52;50.05;101473.16;146609;681;46014;-72
2022/05/08 10:24:37;;;;;;;;;10.50;8.50;;;;;20.37;49.88;101467.50;146612;589;46020;-70
2022/05/08 10:27:37;;;;;;;;;6.50;5.50;;;;;20.27;50.37;101467.28;146610;583;47012;-70
2022/05/08 10:30:30;;;;;;;;;9.00;9.00;;;;;20.24;50.37;101468.94;146610;626;46020;-70
2022/05/08 10:33:22;;;;;;;;;9.75;7.00;;;;;20.17;50.58;101467.03;146610;626;46017;-70
2022/05/08 10:36:14;;;;;;;;;9.00;7.25;;;;;20.11;50.31;101465.13;146613;705;46010;-71
2022/05/08 10:39:42;;;;;;;;;7.75;7.25;;;;;20.07;50.67;101471.19;146610;666;46016;-70
2022/05/08 10:42:45;;;;;;;;;10.50;9.50;;;;;19.96;50.96;101465.66;146612;622;46010;-71
2022/05/08 10:45:42;;;;;;;;;9.75;9.00;;;;;19.87;50.25;101454.00;146613;605;46012;-70
2022/05/08 10:48:35;;;;;;;;;13.50;10.00;;;;;19.87;50.08;101454.00;146615;574;46012;-70
2022/05/08 10:51:27;;;;;;;;;10.00;8.50;;;;;19.99;49.98;101457.81;146609;624;46016;-69
2022/05/08 10:54:19;;;;;;;;;10.00;8.00;;;;;20.26;50.46;101452.34;146615;569;46010;-70
2022/05/08 10:57:11;;;;;;;;;13.00;12.00;;;;;20.62;50.63;101453.16;146607;710;46017;-70
2022/05/08 11:00:04;;;;;;;;;11.50;8.50;;;;;20.81;50.13;101454.44;146609;637;46010;-70
2022/05/08 11:03:01;;;;;;;;;8.00;6.67;;;;;20.84;48.80;101446.59;146613;582;46013;-71
2022/05/08 11:05:54;;;;;;;;;7.00;6.25;;;;;20.80;48.62;101450.03;146615;638;47012;-71
2022/05/08 11:08:47;;;;;;;;;7.00;7.00;;;;;20.68;48.03;101453.28;146613;578;46016;-71
2022/05/08 11:11:39;;;;;;;;;7.00;7.00;;;;;20.41;47.26;101457.06;146609;621;47012;-68
2022/05/08 11:14:32;;;;;;;;;8.75;7.50;;;;;20.05;49.33;101452.72;146611;603;46016;-69
2022/05/08 11:17:24;;;;;;;;;8.50;7.50;;;;;19.86;48.62;101457.50;146616;604;47010;-69
2022/05/08 11:20:19;;;;;;;;;8.00;8.00;;;;;19.68;48.02;101448.28;146614;584;46014;-69
2022/05/08 11:23:15;;;;;;;;;8.75;7.50;;;;;19.66;48.22;101442.09;146614;675;46020;-69
2022/05/08 11:26:09;;;;;;;;;9.00;8.00;;;;;19.79;48.89;101445.94;146612;703;46017;-71
2022/05/08 11:29:01;;;;;;;;;9.75;9.75;;;;;20.01;49.38;101437.72;146612;658;46010;-69
2022/05/08 11:42:07;;;;;;;;;7.50;7.00;;;;;21.33;46.33;101429.97;146607;595;46021;-72
2022/05/08 11:45:09;;;;;;;;;8.75;7.75;;;;;21.48;46.88;101426.78;146611;573;46029;-75
2022/05/08 11:48:02;;;;;;;;;10.75;9.50;;;;;21.48;46.22;101423.25;146612;564;46011;-75
2022/05/08 11:50:57;;;;;;;;;9.33;9.00;;;;;21.48;45.89;101421.50;146606;564;46913;-74
2022/05/08 11:53:52;;;;;;;;;6.33;6.33;;;;;21.38;48.13;101427.47;146612;624;46020;-73
2022/05/08 11:56:44;;;;;;;;;6.00;5.00;;;;;21.20;48.69;101425.34;146612;637;46017;-73
2022/05/08 11:59:40;;;;;;;;;6.67;6.67;;;;;21.03;47.78;101417.13;146617;583;46010;-74
2022/05/08 12:02:50;;;;;;;;;8.33;8.33;;;;;20.92;49.27;101430.06;146605;661;46016;-73
2022/05/08 12:05:43;;;;;;;;;8.25;7.00;;;;;20.84;48.71;101428.12;146616;569;46020;-73
2022/05/08 12:08:35;;;;;;;;;8.33;7.00;;;;;20.73;48.63;101430.56;146613;577;46012;-73
2022/05/08 12:11:45;;;;;;;;;7.33;6.00;;;;;20.76;48.64;101431.50;146614;577;47011;-74
2022/05/08 12:14:39;;;;;;;;;9.25;8.75;;;;;20.80;49.67;101424.56;146608;575;46913;-73
2022/05/08 12:17:32;;;;;;;;;13.00;12.00;;;;;20.73;51.75;101425.28;146607;643;46020;-74
2022/05/08 12:20:40;;;;;;;;;10.75;10.00;;;;;20.61;52.61;101425.91;146609;634;46016;-73
2022/05/08 12:23:33;;;;;;;;;11.75;10.75;;;;;20.39;54.22;101423.66;146610;695;46010;-73
2022/05/08 12:26:25;;;;;;;;;8.33;7.33;;;;;20.07;53.44;101424.69;146614;590;46013;-72
2022/05/08 12:29:26;;;;;;;;;11.75;10.00;;;;;19.82;53.34;101419.69;146603;589;46917;-73
2022/05/08 12:32:24;;;;;;;;;6.00;6.00;;;;;19.67;53.66;101414.94;146611;575;46017;-72
2022/05/08 12:35:19;;;;;;;;;7.00;7.00;;;;;19.61;52.74;101412.13;146612;578;46021;-72
2022/05/08 12:38:11;;;;;;;;;7.00;7.00;;;;;19.57;53.24;101412.91;146615;565;46012;-72
2022/05/08 12:41:03;;;;;;;;;8.50;7.25;;;;;19.58;53.46;101412.91;146619;677;45021;-72
2022/05/08 12:43:55;;;;;;;;;11.33;8.33;;;;;19.64;51.75;101409.59;146608;563;46014;-73
2022/05/08 12:46:47;;;;;;;;;10.00;9.00;;;;;19.72;51.26;101415.94;146607;655;46020;-73
2022/05/08 12:49:41;;;;;;;;;10.25;10.00;;;;;19.76;51.27;101409.91;146606;690;46017;-72
2022/05/08 12:52:35;;;;;;;;;12.00;10.00;;;;;19.89;51.45;101416.34;146608;572;46020;-73
2022/05/08 12:55:27;;;;;;;;;11.25;9.00;;;;;20.00;50.54;101404.34;146610;661;46012;-74
2022/05/08 13:01:29;;;;;;;;;8.50;8.50;;;;;20.22;49.93;101403.09;146610;635;47015;-75
2022/05/08 13:04:22;;;;;;;;;9.00;8.50;;;;;20.25;50.32;101391.75;146617;683;46010;-74
2022/05/08 13:07:14;;;;;;;;;8.00;6.75;;;;;20.36;49.30;101389.34;146610;660;46016;-76
2022/05/08 13:10:06;;;;;;;;;7.50;7.00;;;;;20.38;49.43;101393.78;146615;693;46020;-75
2022/05/08 13:12:58;;;;;;;;;7.75;6.75;;;;;20.41;48.87;101398.25;146611;599;46016;-75
2022/05/08 13:15:50;;;;;;;;;8.75;7.00;;;;;20.40;49.51;101399.97;146615;630;47010;-74
2022/05/08 13:18:43;;;;;;;;;6.00;6.00;;;;;20.36;48.96;101392.84;146612;696;46017;-77
2022/05/08 13:21:37;;;;;;;;;8.25;7.50;;;;;20.32;49.01;101403.31;146612;582;46020;-74
2022/05/08 13:24:29;;;;;;;;;7.50;7.00;;;;;20.26;48.58;101399.66;146613;567;46016;-74
2022/05/08 13:27:22;;;;;;;;;8.25;7.50;;;;;20.18;48.87;101408.25;146615;584;46020;-76
2022/05/08 13:30:14;;;;;;;;;8.50;7.00;;;;;20.05;49.16;101397.44;146610;565;46012;-76
2022/05/08 13:33:07;;;;;;;;;7.25;7.25;;;;;19.99;48.75;101396.41;146617;621;45021;-75
2022/05/08 13:35:59;;;;;;;;;8.50;6.75;;;;;19.97;48.79;101392.84;146616;597;46012;-74
2022/05/08 13:38:51;;;;;;;;;11.00;10.00;;;;;19.94;48.64;101387.53;146610;608;46010;-75
2022/05/08 13:41:44;;;;;;;;;10.50;8.50;;;;;19.93;49.06;101388.34;146611;680;46016;-74
2022/05/08 13:44:36;;;;;;;;;8.00;8.00;;;;;19.96;48.45;101391.06;146617;563;46010;-76
2022/05/08 13:47:29;;;;;;;;;14.00;13.50;;;;;19.98;49.79;101384.09;146610;669;46017;-76
2022/05/08 13:50:21;;;;;;;;;11.25;9.50;;;;;19.98;50.82;101385.00;146614;655;45035;-75
2022/05/08 13:53:14;;;;;;;;;6.25;6.25;;;;;19.95;52.18;101392.81;146616;590;46016;-75
2022/05/08 13:56:05;;;;;;;;;8.25;6.75;;;;;19.93;52.12;101391.88;146618;608;46021;-75